sensor_id;sensor_type;location;lat;lon;timestamp;temperature;humidity
59847;DHT22;45728;48.788;2.302;2022-09-12T00:01:24;16.00;99.90
59847;DHT22;45728;48.788;2.302;2022-09-12T00:03:51;16.00;99.90
59847;DHT22;45728;48.788;2.302;2022-09-12T00:06:19;15.90;99.90
59847;DHT22;45728;48.788;2.302;2022-09-12T00:08:45;16.00;99.90
59847;DHT22;45728;48.788;2.302;2022-09-12T00:11:11;16.00;99.90
59847;DHT22;45728;48.788;2.302;2022-09-12T00:13:38;15.90;99.90
59847;DHT22;45728;48.788;2.302;2022-09-12T00:16:04;16.00;99.90
59847;DHT22;45728;48.788;2.302;2022-09-12T00:18:31;15.90;99.90
59847;DHT22;45728;48.788;2.302;2022-09-12T00:21:00;16.00;99.90
59847;DHT22;45728;48.788;2.302;2022-09-12T00:23:26;16.00;99.90
59847;DHT22;45728;48.788;2.302;2022-09-12T00:25:52;16.00;99.90
59847;DHT22;45728;48.788;2.302;2022-09-12T00:28:18;16.00;99.90
59847;DHT22;45728;48.788;2.302;2022-09-12T00:30:45;16.00;99.90
59847;DHT22;45728;48.788;2.302;2022-09-12T00:33:12;15.90;99.90
59847;DHT22;45728;48.788;2.302;2022-09-12T00:35:44;15.90;99.90
59847;DHT22;45728;48.788;2.302;2022-09-12T00:38:11;15.90;99.90
59847;DHT22;45728;48.788;2.302;2022-09-12T00:40:37;15.80;99.90
59847;DHT22;45728;48.788;2.302;2022-09-12T00:43:03;15.80;99.90
59847;DHT22;45728;48.788;2.302;2022-09-12T00:45:30;15.80;99.90
59847;DHT22;45728;48.788;2.302;2022-09-12T00:47:57;15.90;99.90
59847;DHT22;45728;48.788;2.302;2022-09-12T00:50:24;15.80;99.90
59847;DHT22;45728;48.788;2.302;2022-09-12T00:53:08;15.90;99.90
59847;DHT22;45728;48.788;2.302;2022-09-12T00:55:35;15.90;99.90
59847;DHT22;45728;48.788;2.302;2022-09-12T00:58:04;15.80;99.90
59847;DHT22;45728;48.788;2.302;2022-09-12T01:00:31;15.70;99.90
59847;DHT22;45728;48.788;2.302;2022-09-12T01:02:59;15.70;99.90
59847;DHT22;45728;48.788;2.302;2022-09-12T01:05:25;15.70;99.90
59847;DHT22;45728;48.788;2.302;2022-09-12T01:07:52;15.70;99.90
59847;DHT22;45728;48.788;2.302;2022-09-12T01:10:19;15.70;99.90
59847;DHT22;45728;48.788;2.302;2022-09-12T01:12:45;15.60;99.90
59847;DHT22;45728;48.788;2.302;2022-09-12T01:15:11;15.60;99.90
59847;DHT22;45728;48.788;2.302;2022-09-12T01:17:41;15.60;99.90
59847;DHT22;45728;48.788;2.302;2022-09-12T01:20:20;15.50;99.90
59847;DHT22;45728;48.788;2.302;2022-09-12T01:30:49;15.50;99.90
59847;DHT22;45728;48.788;2.302;2022-09-12T01:38:29;15.40;99.90
59847;DHT22;45728;48.788;2.302;2022-09-12T01:41:43;15.40;99.90
59847;DHT22;45728;48.788;2.302;2022-09-12T01:49:28;15.40;99.90
59847;DHT22;45728;48.788;2.302;2022-09-12T01:54:31;15.20;99.90
59847;DHT22;45728;48.788;2.302;2022-09-12T01:57:00;15.20;99.90
59847;DHT22;45728;48.788;2.302;2022-09-12T01:59:28;15.30;99.90
59847;DHT22;45728;48.788;2.302;2022-09-12T02:01:56;15.30;99.90
59847;DHT22;45728;48.788;2.302;2022-09-12T02:04:30;15.30;99.90
59847;DHT22;45728;48.788;2.302;2022-09-12T02:06:57;15.20;99.90
59847;DHT22;45728;48.788;2.302;2022-09-12T02:09:25;15.20;99.90
59847;DHT22;45728;48.788;2.302;2022-09-12T02:11:52;15.20;99.90
59847;DHT22;45728;48.788;2.302;2022-09-12T02:14:22;15.20;99.90
59847;DHT22;45728;48.788;2.302;2022-09-12T02:16:53;15.20;99.90
59847;DHT22;45728;48.788;2.302;2022-09-12T02:19:22;15.20;99.90
59847;DHT22;45728;48.788;2.302;2022-09-12T02:21:50;15.10;99.90
59847;DHT22;45728;48.788;2.302;2022-09-12T02:24:16;15.00;99.90
59847;DHT22;45728;48.788;2.302;2022-09-12T02:26:46;15.20;99.90
59847;DHT22;45728;48.788;2.302;2022-09-12T02:29:13;15.20;99.90
59847;DHT22;45728;48.788;2.302;2022-09-12T02:31:42;15.10;99.90
59847;DHT22;45728;48.788;2.302;2022-09-12T02:34:13;15.20;99.90
59847;DHT22;45728;48.788;2.302;2022-09-12T02:39:12;15.10;99.90
59847;DHT22;45728;48.788;2.302;2022-09-12T02:41:38;15.10;99.90
59847;DHT22;45728;48.788;2.302;2022-09-12T02:44:04;15.00;99.90
59847;DHT22;45728;48.788;2.302;2022-09-12T02:46:32;15.00;99.90
59847;DHT22;45728;48.788;2.302;2022-09-12T02:48:59;15.00;99.90
59847;DHT22;45728;48.788;2.302;2022-09-12T02:51:25;15.00;99.90
59847;DHT22;45728;48.788;2.302;2022-09-12T02:53:51;15.00;99.90
59847;DHT22;45728;48.788;2.302;2022-09-12T02:56:20;15.00;99.90
59847;DHT22;45728;48.788;2.302;2022-09-12T02:58:48;15.00;99.90
59847;DHT22;45728;48.788;2.302;2022-09-12T03:01:28;15.00;99.90
59847;DHT22;45728;48.788;2.302;2022-09-12T03:12:01;14.90;99.90
59847;DHT22;45728;48.788;2.302;2022-09-12T03:25:00;14.90;99.90
59847;DHT22;45728;48.788;2.302;2022-09-12T03:27:30;14.80;99.90
59847;DHT22;45728;48.788;2.302;2022-09-12T03:29:58;14.80;99.90
59847;DHT22;45728;48.788;2.302;2022-09-12T03:35:09;14.70;99.90
59847;DHT22;45728;48.788;2.302;2022-09-12T03:37:35;14.70;99.90
59847;DHT22;45728;48.788;2.302;2022-09-12T03:40:02;14.70;99.90
59847;DHT22;45728;48.788;2.302;2022-09-12T03:42:28;14.70;99.90
59847;DHT22;45728;48.788;2.302;2022-09-12T03:44:54;14.60;99.90
59847;DHT22;45728;48.788;2.302;2022-09-12T03:47:20;14.50;99.90
59847;DHT22;45728;48.788;2.302;2022-09-12T03:49:46;14.50;99.90
59847;DHT22;45728;48.788;2.302;2022-09-12T03:52:12;14.50;99.90
59847;DHT22;45728;48.788;2.302;2022-09-12T03:54:38;14.60;99.90
59847;DHT22;45728;48.788;2.302;2022-09-12T03:57:04;14.70;99.90
59847;DHT22;45728;48.788;2.302;2022-09-12T03:59:30;14.70;99.90
59847;DHT22;45728;48.788;2.302;2022-09-12T04:01:56;14.60;99.90
59847;DHT22;45728;48.788;2.302;2022-09-12T04:04:22;14.60;99.90
59847;DHT22;45728;48.788;2.302;2022-09-12T04:06:48;14.60;99.90
59847;DHT22;45728;48.788;2.302;2022-09-12T04:09:14;14.60;99.90
59847;DHT22;45728;48.788;2.302;2022-09-12T04:11:40;14.50;99.90
59847;DHT22;45728;48.788;2.302;2022-09-12T04:14:05;14.50;99.90
59847;DHT22;45728;48.788;2.302;2022-09-12T04:16:51;14.50;99.90
59847;DHT22;45728;48.788;2.302;2022-09-12T04:19:17;14.40;99.90
59847;DHT22;45728;48.788;2.302;2022-09-12T04:21:43;14.40;99.90
59847;DHT22;45728;48.788;2.302;2022-09-12T04:24:09;14.50;99.90
59847;DHT22;45728;48.788;2.302;2022-09-12T04:26:35;14.50;99.90
59847;DHT22;45728;48.788;2.302;2022-09-12T04:29:00;14.50;99.90
59847;DHT22;45728;48.788;2.302;2022-09-12T04:31:26;14.40;99.90
59847;DHT22;45728;48.788;2.302;2022-09-12T04:33:53;14.40;99.90
59847;DHT22;45728;48.788;2.302;2022-09-12T04:36:19;14.40;99.90
59847;DHT22;45728;48.788;2.302;2022-09-12T04:38:46;14.30;99.90
59847;DHT22;45728;48.788;2.302;2022-09-12T04:41:12;14.40;99.90
59847;DHT22;45728;48.788;2.302;2022-09-12T04:43:39;14.40;99.90
59847;DHT22;45728;48.788;2.302;2022-09-12T04:46:05;14.40;99.90
59847;DHT22;45728;48.788;2.302;2022-09-12T04:48:32;14.40;99.90
59847;DHT22;45728;48.788;2.302;2022-09-12T04:51:14;14.30;99.90
59847;DHT22;45728;48.788;2.302;2022-09-12T04:53:40;14.30;99.90
59847;DHT22;45728;48.788;2.302;2022-09-12T04:56:07;14.30;99.90
59847;DHT22;45728;48.788;2.302;2022-09-12T04:58:33;14.40;99.90
59847;DHT22;45728;48.788;2.302;2022-09-12T05:01:06;14.40;99.90
59847;DHT22;45728;48.788;2.302;2022-09-12T05:03:32;14.40;99.90
59847;DHT22;45728;48.788;2.302;2022-09-12T05:08:43;14.30;99.90
59847;DHT22;45728;48.788;2.302;2022-09-12T05:11:10;14.30;99.90
59847;DHT22;45728;48.788;2.302;2022-09-12T05:13:37;14.20;99.90
59847;DHT22;45728;48.788;2.302;2022-09-12T05:16:04;14.30;99.90
59847;DHT22;45728;48.788;2.302;2022-09-12T05:18:30;14.30;99.90
59847;DHT22;45728;48.788;2.302;2022-09-12T05:21:00;14.30;99.90
59847;DHT22;45728;48.788;2.302;2022-09-12T05:23:27;14.30;99.90
59847;DHT22;45728;48.788;2.302;2022-09-12T05:25:54;14.30;99.90
59847;DHT22;45728;48.788;2.302;2022-09-12T05:28:20;14.20;99.90
59847;DHT22;45728;48.788;2.302;2022-09-12T05:30:47;14.20;99.90
59847;DHT22;45728;48.788;2.302;2022-09-12T05:33:13;14.30;99.90
59847;DHT22;45728;48.788;2.302;2022-09-12T05:35:40;14.30;99.90
59847;DHT22;45728;48.788;2.302;2022-09-12T05:38:06;14.20;99.90
59847;DHT22;45728;48.788;2.302;2022-09-12T05:40:32;14.30;99.90
59847;DHT22;45728;48.788;2.302;2022-09-12T05:42:58;14.30;99.90
59847;DHT22;45728;48.788;2.302;2022-09-12T05:45:24;14.20;99.90
59847;DHT22;45728;48.788;2.302;2022-09-12T05:47:52;14.30;99.90
59847;DHT22;45728;48.788;2.302;2022-09-12T05:50:18;14.30;99.90
59847;DHT22;45728;48.788;2.302;2022-09-12T05:52:45;14.40;99.90
59847;DHT22;45728;48.788;2.302;2022-09-12T05:55:11;14.40;99.90
59847;DHT22;45728;48.788;2.302;2022-09-12T05:57:37;14.20;99.90
59847;DHT22;45728;48.788;2.302;2022-09-12T06:00:03;14.20;99.90
59847;DHT22;45728;48.788;2.302;2022-09-12T06:02:29;14.30;99.90
59847;DHT22;45728;48.788;2.302;2022-09-12T06:04:55;14.30;99.90
59847;DHT22;45728;48.788;2.302;2022-09-12T06:07:22;14.30;99.90
59847;DHT22;45728;48.788;2.302;2022-09-12T06:09:48;14.40;99.90
59847;DHT22;45728;48.788;2.302;2022-09-12T06:12:14;14.40;99.90
59847;DHT22;45728;48.788;2.302;2022-09-12T06:14:39;14.50;99.90
59847;DHT22;45728;48.788;2.302;2022-09-12T06:17:05;14.50;99.90
59847;DHT22;45728;48.788;2.302;2022-09-12T06:19:31;14.60;99.90
59847;DHT22;45728;48.788;2.302;2022-09-12T06:21:57;14.50;99.90
59847;DHT22;45728;48.788;2.302;2022-09-12T06:24:23;14.50;99.90
59847;DHT22;45728;48.788;2.302;2022-09-12T06:26:49;14.50;99.90
59847;DHT22;45728;48.788;2.302;2022-09-12T06:29:17;14.50;99.90
59847;DHT22;45728;48.788;2.302;2022-09-12T06:31:44;14.50;99.90
59847;DHT22;45728;48.788;2.302;2022-09-12T06:34:12;14.60;99.90
59847;DHT22;45728;48.788;2.302;2022-09-12T06:36:40;14.60;99.90
59847;DHT22;45728;48.788;2.302;2022-09-12T06:39:10;14.70;99.90
59847;DHT22;45728;48.788;2.302;2022-09-12T06:41:36;14.70;99.90
59847;DHT22;45728;48.788;2.302;2022-09-12T06:44:02;14.80;99.90
59847;DHT22;45728;48.788;2.302;2022-09-12T06:46:28;14.90;99.90
59847;DHT22;45728;48.788;2.302;2022-09-12T06:48:56;15.00;99.90
59847;DHT22;45728;48.788;2.302;2022-09-12T06:51:22;15.00;99.90
59847;DHT22;45728;48.788;2.302;2022-09-12T06:53:48;15.00;99.90
59847;DHT22;45728;48.788;2.302;2022-09-12T06:56:15;15.00;99.90
59847;DHT22;45728;48.788;2.302;2022-09-12T06:58:41;15.10;99.90
59847;DHT22;45728;48.788;2.302;2022-09-12T07:01:11;15.30;99.90
59847;DHT22;45728;48.788;2.302;2022-09-12T07:03:38;15.40;99.90
59847;DHT22;45728;48.788;2.302;2022-09-12T07:06:11;15.50;99.90
59847;DHT22;45728;48.788;2.302;2022-09-12T07:08:37;15.60;99.90
59847;DHT22;45728;48.788;2.302;2022-09-12T07:11:09;15.60;99.90
59847;DHT22;45728;48.788;2.302;2022-09-12T07:13:35;15.70;99.90
59847;DHT22;45728;48.788;2.302;2022-09-12T07:16:02;15.80;99.90
59847;DHT22;45728;48.788;2.302;2022-09-12T07:18:28;15.90;99.90
59847;DHT22;45728;48.788;2.302;2022-09-12T07:20:54;16.00;99.90
59847;DHT22;45728;48.788;2.302;2022-09-12T07:23:20;16.10;99.90
59847;DHT22;45728;48.788;2.302;2022-09-12T07:25:52;16.10;99.90
59847;DHT22;45728;48.788;2.302;2022-09-12T07:28:19;16.20;99.90
59847;DHT22;45728;48.788;2.302;2022-09-12T07:30:45;16.20;99.90
59847;DHT22;45728;48.788;2.302;2022-09-12T07:33:11;16.30;99.90
59847;DHT22;45728;48.788;2.302;2022-09-12T07:35:36;16.30;99.90
59847;DHT22;45728;48.788;2.302;2022-09-12T07:38:02;16.40;99.90
59847;DHT22;45728;48.788;2.302;2022-09-12T07:40:28;16.40;99.90
59847;DHT22;45728;48.788;2.302;2022-09-12T07:42:54;16.50;99.90
59847;DHT22;45728;48.788;2.302;2022-09-12T07:45:20;16.60;99.90
59847;DHT22;45728;48.788;2.302;2022-09-12T07:47:46;16.60;99.90
59847;DHT22;45728;48.788;2.302;2022-09-12T07:50:12;16.70;99.90
59847;DHT22;45728;48.788;2.302;2022-09-12T07:52:38;16.80;99.90
59847;DHT22;45728;48.788;2.302;2022-09-12T07:55:04;16.80;99.90
59847;DHT22;45728;48.788;2.302;2022-09-12T07:57:30;16.90;99.90
59847;DHT22;45728;48.788;2.302;2022-09-12T07:59:55;17.00;99.90
59847;DHT22;45728;48.788;2.302;2022-09-12T08:02:21;17.00;99.90
59847;DHT22;45728;48.788;2.302;2022-09-12T08:04:47;17.10;99.90
59847;DHT22;45728;48.788;2.302;2022-09-12T08:07:13;17.20;99.90
59847;DHT22;45728;48.788;2.302;2022-09-12T08:09:39;17.30;99.90
59847;DHT22;45728;48.788;2.302;2022-09-12T08:12:05;17.30;99.90
59847;DHT22;45728;48.788;2.302;2022-09-12T08:14:31;17.40;99.90
59847;DHT22;45728;48.788;2.302;2022-09-12T08:16:57;17.50;99.90
59847;DHT22;45728;48.788;2.302;2022-09-12T08:19:23;17.60;99.90
59847;DHT22;45728;48.788;2.302;2022-09-12T08:21:49;17.60;99.90
59847;DHT22;45728;48.788;2.302;2022-09-12T08:24:15;17.70;99.90
59847;DHT22;45728;48.788;2.302;2022-09-12T08:26:40;17.80;99.90
59847;DHT22;45728;48.788;2.302;2022-09-12T08:29:07;17.90;99.90
59847;DHT22;45728;48.788;2.302;2022-09-12T08:31:33;17.90;99.90
59847;DHT22;45728;48.788;2.302;2022-09-12T08:34:03;18.00;99.90
59847;DHT22;45728;48.788;2.302;2022-09-12T08:36:29;18.10;99.90
59847;DHT22;45728;48.788;2.302;2022-09-12T08:38:58;18.30;99.90
59847;DHT22;45728;48.788;2.302;2022-09-12T08:41:29;18.40;99.90
59847;DHT22;45728;48.788;2.302;2022-09-12T08:49:03;18.50;99.90
59847;DHT22;45728;48.788;2.302;2022-09-12T08:51:30;18.70;99.90
59847;DHT22;45728;48.788;2.302;2022-09-12T08:53:57;18.80;99.90
59847;DHT22;45728;48.788;2.302;2022-09-12T08:56:25;18.90;99.90
59847;DHT22;45728;48.788;2.302;2022-09-12T08:58:52;18.80;99.90
59847;DHT22;45728;48.788;2.302;2022-09-12T09:01:31;18.80;99.90
59847;DHT22;45728;48.788;2.302;2022-09-12T09:04:07;18.90;99.90
59847;DHT22;45728;48.788;2.302;2022-09-12T09:09:28;19.20;99.90
59847;DHT22;45728;48.788;2.302;2022-09-12T09:14:44;19.50;99.90
59847;DHT22;45728;48.788;2.302;2022-09-12T09:19:50;19.80;99.90
59847;DHT22;45728;48.788;2.302;2022-09-12T09:22:25;20.00;99.90
59847;DHT22;45728;48.788;2.302;2022-09-12T09:24:54;20.40;99.90
59847;DHT22;45728;48.788;2.302;2022-09-12T09:27:31;20.40;99.90
59847;DHT22;45728;48.788;2.302;2022-09-12T09:29:58;20.60;99.90
59847;DHT22;45728;48.788;2.302;2022-09-12T09:32:32;20.70;99.90
59847;DHT22;45728;48.788;2.302;2022-09-12T09:35:01;20.90;99.90
59847;DHT22;45728;48.788;2.302;2022-09-12T09:44:59;22.10;99.90
59847;DHT22;45728;48.788;2.302;2022-09-12T09:47:27;22.20;99.90
59847;DHT22;45728;48.788;2.302;2022-09-12T09:49:53;22.20;99.90
59847;DHT22;45728;48.788;2.302;2022-09-12T09:52:24;22.20;99.90
59847;DHT22;45728;48.788;2.302;2022-09-12T09:55:01;22.30;99.90
59847;DHT22;45728;48.788;2.302;2022-09-12T10:02:56;23.50;99.90
59847;DHT22;45728;48.788;2.302;2022-09-12T10:05:23;23.70;99.90
59847;DHT22;45728;48.788;2.302;2022-09-12T10:07:49;23.50;99.90
59847;DHT22;45728;48.788;2.302;2022-09-12T10:10:16;23.60;99.90
59847;DHT22;45728;48.788;2.302;2022-09-12T10:12:42;23.90;99.90
59847;DHT22;45728;48.788;2.302;2022-09-12T10:15:19;24.00;99.90
59847;DHT22;45728;48.788;2.302;2022-09-12T10:17:46;24.10;99.90
59847;DHT22;45728;48.788;2.302;2022-09-12T10:22:58;24.50;99.90
59847;DHT22;45728;48.788;2.302;2022-09-12T10:25:25;24.60;99.90
59847;DHT22;45728;48.788;2.302;2022-09-12T10:27:58;24.80;99.90
59847;DHT22;45728;48.788;2.302;2022-09-12T10:30:24;25.00;99.90
59847;DHT22;45728;48.788;2.302;2022-09-12T10:32:58;24.70;99.90
59847;DHT22;45728;48.788;2.302;2022-09-12T10:35:29;24.90;99.90
59847;DHT22;45728;48.788;2.302;2022-09-12T10:37:57;25.10;99.90
59847;DHT22;45728;48.788;2.302;2022-09-12T10:40:25;25.10;99.90
59847;DHT22;45728;48.788;2.302;2022-09-12T10:42:53;25.40;99.90
59847;DHT22;45728;48.788;2.302;2022-09-12T10:47:55;25.70;99.90
59847;DHT22;45728;48.788;2.302;2022-09-12T10:50:24;25.70;99.90
59847;DHT22;45728;48.788;2.302;2022-09-12T10:52:52;25.80;99.90
59847;DHT22;45728;48.788;2.302;2022-09-12T10:55:19;25.70;99.90
59847;DHT22;45728;48.788;2.302;2022-09-12T10:57:53;25.20;99.90
59847;DHT22;45728;48.788;2.302;2022-09-12T11:00:24;25.30;99.90
59847;DHT22;45728;48.788;2.302;2022-09-12T11:05:57;25.30;99.90
59847;DHT22;45728;48.788;2.302;2022-09-12T11:17:11;25.90;99.90
59847;DHT22;45728;48.788;2.302;2022-09-12T11:27:08;26.50;99.90
59847;DHT22;45728;48.788;2.302;2022-09-12T11:34:59;27.10;99.90
59847;DHT22;45728;48.788;2.302;2022-09-12T11:40:01;26.60;99.90
59847;DHT22;45728;48.788;2.302;2022-09-12T11:42:32;26.30;99.90
59847;DHT22;45728;48.788;2.302;2022-09-12T11:45:03;26.50;99.90
59847;DHT22;45728;48.788;2.302;2022-09-12T11:47:32;26.90;99.90
59847;DHT22;45728;48.788;2.302;2022-09-12T11:50:00;26.60;99.50
59847;DHT22;45728;48.788;2.302;2022-09-12T11:52:28;26.30;99.80
59847;DHT22;45728;48.788;2.302;2022-09-12T11:55:02;26.20;99.90
59847;DHT22;45728;48.788;2.302;2022-09-12T11:57:32;26.50;99.90
59847;DHT22;45728;48.788;2.302;2022-09-12T12:02:30;26.30;99.90
59847;DHT22;45728;48.788;2.302;2022-09-12T12:07:41;26.90;99.90
59847;DHT22;45728;48.788;2.302;2022-09-12T12:10:20;26.80;99.30
59847;DHT22;45728;48.788;2.302;2022-09-12T12:12:49;26.70;99.90
59847;DHT22;45728;48.788;2.302;2022-09-12T12:15:15;26.30;99.70
59847;DHT22;45728;48.788;2.302;2022-09-12T12:17:41;26.30;99.40
59847;DHT22;45728;48.788;2.302;2022-09-12T12:20:13;26.10;99.90
59847;DHT22;45728;48.788;2.302;2022-09-12T12:22:49;26.40;99.30
59847;DHT22;45728;48.788;2.302;2022-09-12T12:27:46;26.90;99.80
59847;DHT22;45728;48.788;2.302;2022-09-12T12:38:02;27.30;99.40
59847;DHT22;45728;48.788;2.302;2022-09-12T12:40:29;27.20;98.50
59847;DHT22;45728;48.788;2.302;2022-09-12T12:47:53;27.80;98.30
59847;DHT22;45728;48.788;2.302;2022-09-12T12:50:21;28.00;98.40
59847;DHT22;45728;48.788;2.302;2022-09-12T12:52:51;28.00;97.80
59847;DHT22;45728;48.788;2.302;2022-09-12T12:58:00;28.30;98.40
59847;DHT22;45728;48.788;2.302;2022-09-12T13:00:33;28.40;97.90
59847;DHT22;45728;48.788;2.302;2022-09-12T13:05:29;27.90;97.40
59847;DHT22;45728;48.788;2.302;2022-09-12T13:10:51;27.40;97.20
59847;DHT22;45728;48.788;2.302;2022-09-12T13:13:39;27.60;98.10
59847;DHT22;45728;48.788;2.302;2022-09-12T13:16:03;27.90;97.90
59847;DHT22;45728;48.788;2.302;2022-09-12T13:18:32;28.20;97.00
59847;DHT22;45728;48.788;2.302;2022-09-12T13:21:09;28.30;96.50
59847;DHT22;45728;48.788;2.302;2022-09-12T13:23:36;28.30;96.20
59847;DHT22;45728;48.788;2.302;2022-09-12T13:26:03;28.40;96.50
59847;DHT22;45728;48.788;2.302;2022-09-12T13:28:34;28.40;96.20
59847;DHT22;45728;48.788;2.302;2022-09-12T13:31:01;28.30;96.10
59847;DHT22;45728;48.788;2.302;2022-09-12T13:36:07;28.60;96.40
59847;DHT22;45728;48.788;2.302;2022-09-12T13:38:53;28.70;96.30
59847;DHT22;45728;48.788;2.302;2022-09-12T13:43:48;28.70;96.60
59847;DHT22;45728;48.788;2.302;2022-09-12T13:46:15;28.70;96.30
59847;DHT22;45728;48.788;2.302;2022-09-12T13:48:42;28.80;96.00
59847;DHT22;45728;48.788;2.302;2022-09-12T13:51:12;28.40;94.90
59847;DHT22;45728;48.788;2.302;2022-09-12T13:53:43;28.40;96.00
59847;DHT22;45728;48.788;2.302;2022-09-12T13:56:16;28.60;96.20
59847;DHT22;45728;48.788;2.302;2022-09-12T13:58:56;28.60;95.50
59847;DHT22;45728;48.788;2.302;2022-09-12T14:01:23;28.50;95.90
59847;DHT22;45728;48.788;2.302;2022-09-12T14:03:50;28.70;96.00
59847;DHT22;45728;48.788;2.302;2022-09-12T14:06:41;28.80;95.50
59847;DHT22;45728;48.788;2.302;2022-09-12T14:09:16;28.60;95.70
59847;DHT22;45728;48.788;2.302;2022-09-12T14:11:46;28.50;95.30
59847;DHT22;45728;48.788;2.302;2022-09-12T14:17:18;28.60;95.20
59847;DHT22;45728;48.788;2.302;2022-09-12T14:19:48;28.30;94.40
59847;DHT22;45728;48.788;2.302;2022-09-12T14:22:14;28.30;95.30
59847;DHT22;45728;48.788;2.302;2022-09-12T14:24:46;28.30;94.10
59847;DHT22;45728;48.788;2.302;2022-09-12T14:27:21;27.80;94.40
59847;DHT22;45728;48.788;2.302;2022-09-12T14:29:52;27.70;95.00
59847;DHT22;45728;48.788;2.302;2022-09-12T14:32:23;27.30;94.90
59847;DHT22;45728;48.788;2.302;2022-09-12T14:37:34;27.80;95.20
59847;DHT22;45728;48.788;2.302;2022-09-12T14:40:00;28.00;94.80
59847;DHT22;45728;48.788;2.302;2022-09-12T14:42:28;28.20;95.30
59847;DHT22;45728;48.788;2.302;2022-09-12T14:44:56;28.40;94.80
59847;DHT22;45728;48.788;2.302;2022-09-12T14:47:23;28.40;94.40
59847;DHT22;45728;48.788;2.302;2022-09-12T14:49:50;28.40;94.60
59847;DHT22;45728;48.788;2.302;2022-09-12T14:52:23;28.40;94.60
59847;DHT22;45728;48.788;2.302;2022-09-12T14:54:57;28.20;94.70
59847;DHT22;45728;48.788;2.302;2022-09-12T14:57:31;27.90;94.80
59847;DHT22;45728;48.788;2.302;2022-09-12T15:00:04;28.00;95.10
59847;DHT22;45728;48.788;2.302;2022-09-12T15:02:30;28.10;94.40
59847;DHT22;45728;48.788;2.302;2022-09-12T15:07:35;28.10;94.70
59847;DHT22;45728;48.788;2.302;2022-09-12T15:10:05;27.80;94.60
59847;DHT22;45728;48.788;2.302;2022-09-12T15:12:31;27.70;94.50
59847;DHT22;45728;48.788;2.302;2022-09-12T15:15:31;27.60;94.70
59847;DHT22;45728;48.788;2.302;2022-09-12T15:17:49;27.80;94.80
59847;DHT22;45728;48.788;2.302;2022-09-12T15:20:15;28.00;94.40
59847;DHT22;45728;48.788;2.302;2022-09-12T15:22:41;28.10;94.40
59847;DHT22;45728;48.788;2.302;2022-09-12T15:25:08;28.20;93.80
59847;DHT22;45728;48.788;2.302;2022-09-12T15:27:35;28.20;94.20
59847;DHT22;45728;48.788;2.302;2022-09-12T15:30:06;28.30;94.30
59847;DHT22;45728;48.788;2.302;2022-09-12T15:32:32;28.20;94.30
59847;DHT22;45728;48.788;2.302;2022-09-12T15:34:58;27.80;94.00
59847;DHT22;45728;48.788;2.302;2022-09-12T15:37:24;27.90;94.70
59847;DHT22;45728;48.788;2.302;2022-09-12T15:39:50;28.10;94.40
59847;DHT22;45728;48.788;2.302;2022-09-12T15:42:16;28.30;94.00
59847;DHT22;45728;48.788;2.302;2022-09-12T15:44:43;27.90;93.80
59847;DHT22;45728;48.788;2.302;2022-09-12T15:49:53;27.50;94.40
59847;DHT22;45728;48.788;2.302;2022-09-12T15:52:19;27.70;94.90
59847;DHT22;45728;48.788;2.302;2022-09-12T15:54:45;27.90;94.70
59847;DHT22;45728;48.788;2.302;2022-09-12T15:57:11;27.80;94.40
59847;DHT22;45728;48.788;2.302;2022-09-12T15:59:37;27.60;93.70
59847;DHT22;45728;48.788;2.302;2022-09-12T16:02:03;27.40;94.10
59847;DHT22;45728;48.788;2.302;2022-09-12T16:04:30;27.40;94.60
59847;DHT22;45728;48.788;2.302;2022-09-12T16:06:56;27.60;94.40
59847;DHT22;45728;48.788;2.302;2022-09-12T16:09:22;27.70;94.30
59847;DHT22;45728;48.788;2.302;2022-09-12T16:11:48;27.60;94.20
59847;DHT22;45728;48.788;2.302;2022-09-12T16:14:15;27.50;94.60
59847;DHT22;45728;48.788;2.302;2022-09-12T16:16:41;27.50;94.60
59847;DHT22;45728;48.788;2.302;2022-09-12T16:19:07;27.50;94.30
59847;DHT22;45728;48.788;2.302;2022-09-12T16:21:34;27.50;94.50
59847;DHT22;45728;48.788;2.302;2022-09-12T16:24:00;27.40;94.20
59847;DHT22;45728;48.788;2.302;2022-09-12T16:26:26;27.40;94.50
59847;DHT22;45728;48.788;2.302;2022-09-12T16:28:53;27.30;94.10
59847;DHT22;45728;48.788;2.302;2022-09-12T16:31:19;27.20;94.00
59847;DHT22;45728;48.788;2.302;2022-09-12T16:33:45;27.10;94.10
59847;DHT22;45728;48.788;2.302;2022-09-12T16:36:12;27.10;94.70
59847;DHT22;45728;48.788;2.302;2022-09-12T16:38:42;27.10;94.10
59847;DHT22;45728;48.788;2.302;2022-09-12T16:41:08;27.00;94.50
59847;DHT22;45728;48.788;2.302;2022-09-12T16:43:34;27.10;94.40
59847;DHT22;45728;48.788;2.302;2022-09-12T16:46:04;27.20;94.70
59847;DHT22;45728;48.788;2.302;2022-09-12T16:48:30;27.20;94.80
59847;DHT22;45728;48.788;2.302;2022-09-12T16:50:57;27.10;94.80
59847;DHT22;45728;48.788;2.302;2022-09-12T16:53:23;27.10;94.80
59847;DHT22;45728;48.788;2.302;2022-09-12T16:55:49;27.00;94.80
59847;DHT22;45728;48.788;2.302;2022-09-12T16:58:15;26.90;94.80
59847;DHT22;45728;48.788;2.302;2022-09-12T17:00:41;26.90;94.90
59847;DHT22;45728;48.788;2.302;2022-09-12T17:03:08;26.70;94.80
59847;DHT22;45728;48.788;2.302;2022-09-12T17:05:34;26.70;95.20
59847;DHT22;45728;48.788;2.302;2022-09-12T17:08:00;26.70;95.00
59847;DHT22;45728;48.788;2.302;2022-09-12T17:10:26;26.70;95.10
59847;DHT22;45728;48.788;2.302;2022-09-12T17:12:52;26.70;95.20
59847;DHT22;45728;48.788;2.302;2022-09-12T17:15:18;26.60;95.30
59847;DHT22;45728;48.788;2.302;2022-09-12T17:17:44;26.40;95.50
59847;DHT22;45728;48.788;2.302;2022-09-12T17:20:10;26.30;95.80
59847;DHT22;45728;48.788;2.302;2022-09-12T17:22:36;26.30;95.80
59847;DHT22;45728;48.788;2.302;2022-09-12T17:25:02;26.30;96.10
59847;DHT22;45728;48.788;2.302;2022-09-12T17:27:28;26.20;96.10
59847;DHT22;45728;48.788;2.302;2022-09-12T17:29:54;26.20;96.10
59847;DHT22;45728;48.788;2.302;2022-09-12T17:32:20;26.30;96.40
59847;DHT22;45728;48.788;2.302;2022-09-12T17:34:46;26.20;96.40
59847;DHT22;45728;48.788;2.302;2022-09-12T17:37:12;26.20;96.50
59847;DHT22;45728;48.788;2.302;2022-09-12T17:39:38;26.20;96.80
59847;DHT22;45728;48.788;2.302;2022-09-12T17:42:04;26.10;96.70
59847;DHT22;45728;48.788;2.302;2022-09-12T17:44:32;26.00;96.70
59847;DHT22;45728;48.788;2.302;2022-09-12T17:46:59;26.00;97.40
59847;DHT22;45728;48.788;2.302;2022-09-12T17:49:24;26.00;96.80
59847;DHT22;45728;48.788;2.302;2022-09-12T17:51:50;26.00;96.90
59847;DHT22;45728;48.788;2.302;2022-09-12T17:54:17;25.90;97.10
59847;DHT22;45728;48.788;2.302;2022-09-12T17:56:43;25.90;97.10
59847;DHT22;45728;48.788;2.302;2022-09-12T17:59:13;25.90;97.40
59847;DHT22;45728;48.788;2.302;2022-09-12T18:01:39;25.70;97.30
59847;DHT22;45728;48.788;2.302;2022-09-12T18:04:24;25.60;97.70
59847;DHT22;45728;48.788;2.302;2022-09-12T18:06:49;25.60;97.70